createdAt,value
2019-03-18T00:00:17.257Z,51.40
2019-03-18T00:02:44.717Z,51.30
2019-03-18T00:05:12.185Z,51.20
2019-03-18T00:07:39.678Z,51.40
2019-03-18T00:10:07.564Z,51.30
2019-03-18T00:12:35.030Z,51.20
2019-03-18T00:15:02.494Z,51.20
2019-03-18T00:17:29.960Z,51.20
2019-03-18T00:19:57.426Z,51.20
2019-03-18T00:22:24.902Z,51.20
2019-03-18T00:24:52.366Z,51.20
2019-03-18T00:27:19.841Z,51.10
2019-03-18T00:29:49.438Z,51.10
2019-03-18T00:32:16.890Z,51.10
2019-03-18T00:34:44.362Z,51.10
2019-03-18T00:37:11.817Z,51.10
2019-03-18T00:39:39.286Z,51.10
2019-03-18T00:42:06.777Z,51.10
2019-03-18T00:44:34.243Z,51.10
2019-03-18T00:47:01.706Z,51.10
2019-03-18T00:49:29.255Z,51.10
2019-03-18T00:51:56.702Z,51.10
2019-03-18T00:54:24.172Z,51.00
2019-03-18T00:56:51.661Z,51.10
2019-03-18T00:59:19.237Z,51.00
2019-03-18T01:01:46.706Z,51.10
2019-03-18T01:04:14.170Z,51.10
2019-03-18T01:06:41.634Z,51.00
2019-03-18T01:09:09.102Z,51.00
2019-03-18T01:11:36.567Z,51.00
2019-03-18T01:14:04.052Z,51.00
2019-03-18T01:16:31.517Z,51.00
2019-03-18T01:18:59.002Z,50.90
2019-03-18T01:21:26.469Z,50.90
2019-03-18T01:23:53.938Z,50.90
2019-03-18T01:26:21.397Z,50.80
2019-03-18T01:28:48.858Z,51.10
2019-03-18T01:31:16.323Z,50.90
2019-03-18T01:33:43.814Z,50.80
2019-03-18T01:36:12.283Z,50.90
2019-03-18T01:38:39.824Z,50.80
2019-03-18T01:41:07.353Z,50.80
2019-03-18T01:43:34.939Z,50.80
2019-03-18T01:46:02.540Z,50.90
2019-03-18T01:48:30.086Z,50.80
2019-03-18T01:50:57.667Z,50.80
2019-03-18T01:53:25.205Z,50.80
2019-03-18T01:55:52.735Z,50.80
2019-03-18T01:58:20.269Z,50.80
2019-03-18T02:00:47.795Z,50.80
2019-03-18T02:03:15.399Z,50.80
2019-03-18T02:05:48.911Z,50.90
2019-03-18T02:08:16.452Z,50.80
2019-03-18T02:10:43.900Z,50.90
2019-03-18T02:13:11.374Z,50.80
2019-03-18T02:15:38.855Z,50.80
2019-03-18T02:18:06.323Z,50.80
2019-03-18T02:20:33.807Z,50.80
2019-03-18T02:23:01.249Z,50.80
2019-03-18T02:25:28.722Z,50.80
2019-03-18T02:27:56.459Z,50.80
2019-03-18T02:30:23.932Z,50.80
2019-03-18T02:32:51.388Z,50.80
2019-03-18T02:35:18.927Z,50.80
2019-03-18T02:37:46.380Z,50.80
2019-03-18T02:40:14.063Z,50.80
2019-03-18T02:42:41.708Z,50.80
2019-03-18T02:45:10.051Z,50.70
2019-03-18T02:47:37.514Z,50.70
2019-03-18T02:50:05.555Z,50.80
2019-03-18T02:52:33.035Z,50.80
2019-03-18T02:55:00.518Z,50.70
2019-03-18T02:57:28.365Z,50.70
2019-03-18T02:59:55.894Z,50.70
2019-03-18T03:02:23.368Z,50.70
2019-03-18T03:04:50.846Z,50.70
2019-03-18T03:07:18.302Z,50.70
2019-03-18T03:09:45.852Z,50.80
2019-03-18T03:12:13.368Z,50.80
2019-03-18T03:14:40.845Z,50.70
2019-03-18T03:17:08.317Z,50.70
2019-03-18T03:19:35.909Z,50.70
2019-03-18T03:22:03.436Z,50.80
2019-03-18T03:24:30.912Z,50.70
2019-03-18T03:26:58.375Z,50.80
2019-03-18T03:29:25.959Z,50.70
2019-03-18T03:31:53.965Z,50.70
2019-03-18T03:34:21.557Z,50.80
2019-03-18T03:36:49.154Z,50.80
2019-03-18T03:39:16.772Z,50.80
2019-03-18T03:41:44.696Z,50.70
2019-03-18T03:44:12.328Z,50.70
2019-03-18T03:46:43.724Z,50.70
2019-03-18T03:49:09.165Z,50.70
2019-03-18T03:51:36.694Z,50.70
2019-03-18T03:54:04.232Z,50.80
2019-03-18T03:56:31.833Z,51.30
2019-03-18T03:58:59.283Z,50.70
2019-03-18T04:01:29.452Z,50.80
2019-03-18T04:03:55.945Z,50.70
2019-03-18T04:06:23.426Z,50.70
2019-03-18T04:08:50.886Z,50.70
2019-03-18T04:11:18.353Z,50.70
2019-03-18T04:13:45.823Z,50.70
2019-03-18T04:16:13.286Z,50.70
2019-03-18T04:18:40.780Z,50.70
2019-03-18T04:21:08.246Z,50.70
2019-03-18T04:23:35.772Z,50.70
2019-03-18T04:26:03.268Z,50.70
2019-03-18T04:28:30.788Z,50.70
2019-03-18T04:30:58.272Z,50.70
2019-03-18T04:33:25.751Z,50.70
2019-03-18T04:35:53.220Z,50.70
2019-03-18T04:38:20.687Z,50.70
2019-03-18T04:40:48.144Z,50.70
2019-03-18T04:43:15.622Z,50.70
2019-03-18T04:45:43.087Z,50.70
2019-03-18T04:48:10.556Z,50.70
2019-03-18T04:50:38.085Z,50.70
2019-03-18T04:53:05.575Z,50.70
2019-03-18T04:55:33.041Z,50.10
2019-03-18T04:58:00.501Z,50.80
2019-03-18T05:00:27.980Z,50.70
2019-03-18T05:02:55.446Z,50.70
2019-03-18T05:05:22.920Z,50.70
2019-03-18T05:07:50.389Z,50.60
2019-03-18T05:10:17.876Z,50.60
2019-03-18T05:12:45.350Z,50.60
2019-03-18T05:15:12.852Z,50.70
2019-03-18T05:17:40.382Z,50.70
2019-03-18T05:20:08.434Z,50.70
2019-03-18T05:22:36.050Z,50.60
2019-03-18T05:25:04.179Z,50.50
2019-03-18T05:27:31.665Z,50.50
2019-03-18T05:29:59.130Z,50.50
2019-03-18T05:32:26.606Z,50.40
2019-03-18T05:34:54.159Z,50.50
2019-03-18T05:37:21.619Z,50.40
2019-03-18T05:39:49.088Z,50.40
2019-03-18T05:42:16.586Z,50.40
2019-03-18T05:44:44.139Z,50.40
2019-03-18T05:47:11.603Z,50.40
2019-03-18T05:49:39.068Z,50.40
2019-03-18T05:52:06.550Z,50.10
2019-03-18T05:54:34.014Z,50.40
2019-03-18T05:57:01.482Z,50.40
2019-03-18T05:59:28.950Z,50.30
2019-03-18T06:01:56.466Z,50.40
2019-03-18T06:04:23.973Z,50.40
2019-03-18T06:06:51.435Z,50.50
2019-03-18T06:09:18.899Z,50.50
2019-03-18T06:11:46.366Z,50.50
2019-03-18T06:14:13.839Z,50.40
2019-03-18T06:16:41.301Z,50.40
2019-03-18T06:19:08.766Z,50.40
2019-03-18T06:21:36.547Z,50.30
2019-03-18T06:24:06.257Z,50.20
2019-03-18T06:26:33.223Z,50.20
2019-03-18T06:29:00.728Z,50.20
2019-03-18T06:31:35.304Z,50.10
2019-03-18T06:34:02.772Z,50.20
2019-03-18T06:36:30.247Z,50.10
2019-03-18T06:38:57.782Z,50.00
2019-03-18T06:41:25.253Z,50.00
2019-03-18T06:43:52.718Z,49.90
2019-03-18T06:46:20.196Z,50.00
2019-03-18T06:48:47.667Z,49.90
2019-03-18T06:51:15.150Z,49.80
2019-03-18T06:53:42.617Z,49.80
2019-03-18T06:56:10.125Z,49.80
2019-03-18T06:58:37.599Z,49.70
2019-03-18T07:01:05.078Z,49.50
2019-03-18T07:03:32.547Z,49.70
2019-03-18T07:06:00.141Z,49.70
2019-03-18T07:08:27.599Z,49.60
2019-03-18T07:10:55.074Z,49.60
2019-03-18T07:13:22.548Z,49.60
2019-03-18T07:15:50.105Z,49.60
2019-03-18T07:18:18.937Z,49.80
2019-03-18T07:20:46.728Z,49.70
2019-03-18T07:23:14.203Z,49.60
2019-03-18T07:25:41.699Z,49.60
2019-03-18T07:28:09.369Z,49.60
2019-03-18T07:30:36.965Z,49.60
2019-03-18T07:33:04.434Z,49.50
2019-03-18T07:35:31.914Z,49.50
2019-03-18T07:37:59.398Z,49.50
2019-03-18T07:40:26.856Z,49.60
2019-03-18T07:42:54.336Z,49.60
2019-03-18T07:45:21.798Z,49.70
2019-03-18T07:47:49.283Z,49.60
2019-03-18T07:50:16.779Z,49.60
2019-03-18T07:52:44.270Z,49.60
2019-03-18T07:55:11.744Z,49.60
2019-03-18T07:57:39.228Z,49.60
2019-03-18T08:00:08.322Z,49.60
2019-03-18T08:02:35.817Z,49.60
2019-03-18T08:05:04.183Z,49.60
2019-03-18T08:07:31.674Z,50.30
2019-03-18T08:09:59.143Z,49.60
2019-03-18T08:12:26.643Z,49.60
2019-03-18T08:14:54.145Z,49.60
2019-03-18T08:17:21.626Z,49.60
2019-03-18T08:19:49.077Z,49.70
2019-03-18T08:22:16.572Z,49.50
2019-03-18T08:24:44.054Z,49.60
2019-03-18T08:27:11.585Z,49.60
2019-03-18T08:29:39.054Z,49.50
2019-03-18T08:32:06.542Z,49.50
2019-03-18T08:34:34.010Z,49.40
2019-03-18T08:37:01.772Z,49.40
2019-03-18T08:39:29.274Z,49.30
2019-03-18T08:41:56.745Z,49.30
2019-03-18T08:44:24.205Z,49.30
2019-03-18T08:46:51.746Z,49.30
2019-03-18T08:49:20.482Z,49.40
2019-03-18T08:51:47.942Z,49.40
2019-03-18T08:54:15.425Z,49.40
2019-03-18T08:56:42.902Z,50.10
2019-03-18T08:59:10.374Z,49.40
2019-03-18T09:01:37.851Z,49.30
2019-03-18T09:04:05.322Z,49.40
2019-03-18T09:06:32.797Z,49.40
2019-03-18T09:09:00.578Z,50.00
2019-03-18T09:11:28.056Z,50.10
2019-03-18T09:13:55.537Z,49.40
2019-03-18T09:16:23.073Z,49.50
2019-03-18T09:18:50.538Z,49.50
2019-03-18T09:21:18.075Z,49.40
2019-03-18T09:23:45.547Z,49.40
2019-03-18T09:26:13.010Z,49.40
2019-03-18T09:28:40.688Z,49.40
2019-03-18T09:31:08.174Z,49.50
2019-03-18T09:33:35.719Z,49.40
2019-03-18T09:36:03.191Z,49.30
2019-03-18T09:38:30.663Z,49.30
2019-03-18T09:40:58.163Z,49.30
2019-03-18T09:43:25.621Z,48.70
2019-03-18T09:45:54.548Z,49.20
2019-03-18T09:48:22.212Z,49.10
2019-03-18T09:50:49.694Z,49.10
2019-03-18T09:53:17.172Z,49.10
2019-03-18T09:55:44.743Z,49.30
2019-03-18T09:58:12.226Z,49.10
2019-03-18T10:00:39.695Z,49.10
2019-03-18T10:03:07.256Z,49.10
2019-03-18T10:05:34.735Z,49.20
2019-03-18T10:08:02.208Z,49.20
2019-03-18T10:10:29.698Z,49.10
2019-03-18T10:12:57.170Z,49.90
2019-03-18T10:15:24.720Z,49.10
2019-03-18T10:17:52.182Z,49.00
2019-03-18T10:20:19.679Z,49.00
2019-03-18T10:22:47.179Z,49.30
2019-03-18T10:25:14.647Z,49.10
2019-03-18T10:27:42.124Z,49.30
2019-03-18T10:30:12.993Z,49.20
2019-03-18T10:32:40.482Z,49.30
2019-03-18T10:35:08.412Z,49.10
2019-03-18T10:37:35.891Z,49.10
2019-03-18T10:40:04.228Z,49.10
2019-03-18T10:42:31.727Z,48.90
2019-03-18T10:44:59.250Z,49.00
2019-03-18T10:47:26.709Z,48.90
2019-03-18T10:49:54.182Z,49.00
2019-03-18T10:52:21.650Z,48.90
2019-03-18T10:54:49.150Z,48.80
2019-03-18T10:57:16.751Z,48.90
2019-03-18T10:59:44.247Z,48.90
2019-03-18T11:02:11.719Z,48.90
2019-03-18T11:04:39.213Z,49.10
2019-03-18T11:07:06.719Z,48.90
2019-03-18T11:09:34.186Z,48.80
2019-03-18T11:12:01.661Z,48.80
2019-03-18T11:14:29.131Z,48.90
2019-03-18T11:16:56.602Z,48.80
2019-03-18T11:19:24.071Z,48.80
2019-03-18T11:21:51.542Z,48.90
2019-03-18T11:24:19.362Z,48.80
2019-03-18T11:26:46.838Z,48.90
2019-03-18T11:29:14.312Z,48.90
2019-03-18T11:31:41.794Z,48.90
2019-03-18T11:34:09.293Z,48.80
2019-03-18T11:36:36.769Z,48.90
2019-03-18T11:39:05.560Z,48.80
2019-03-18T11:41:33.043Z,48.70
2019-03-18T11:44:00.522Z,48.70
2019-03-18T11:46:28.004Z,48.70
2019-03-18T11:48:55.490Z,48.60
2019-03-18T11:51:22.958Z,48.60
2019-03-18T11:53:50.446Z,48.70
2019-03-18T11:56:17.918Z,48.60
2019-03-18T11:58:45.400Z,48.70
2019-03-18T12:01:12.966Z,48.80
2019-03-18T12:03:40.434Z,48.90
2019-03-18T12:06:07.902Z,48.90
2019-03-18T12:08:35.370Z,48.90
2019-03-18T12:11:02.841Z,48.90
2019-03-18T12:13:30.323Z,48.90
2019-03-18T12:15:57.805Z,48.80
2019-03-18T12:18:25.306Z,48.80
2019-03-18T12:20:52.831Z,48.80
2019-03-18T12:23:20.317Z,48.70
2019-03-18T12:25:47.782Z,48.90
2019-03-18T12:28:15.262Z,48.90
2019-03-18T12:30:42.723Z,48.90
2019-03-18T12:33:10.201Z,49.00
2019-03-18T12:35:37.657Z,49.00
2019-03-18T12:38:05.162Z,48.90
2019-03-18T12:40:32.666Z,48.90
2019-03-18T12:43:00.147Z,48.80
2019-03-18T12:45:27.604Z,48.90
2019-03-18T12:47:55.194Z,49.00
2019-03-18T12:50:38.647Z,49.00
2019-03-18T12:52:52.458Z,48.90
2019-03-18T12:55:19.930Z,49.00
2019-03-18T12:57:47.432Z,48.90
2019-03-18T13:00:22.519Z,49.00
2019-03-18T13:02:50.053Z,48.90
2019-03-18T13:05:17.579Z,48.90
2019-03-18T13:07:45.090Z,48.90
2019-03-18T13:10:14.270Z,48.80
2019-03-18T13:12:41.739Z,48.90
2019-03-18T13:15:13.117Z,49.00
2019-03-18T13:17:43.627Z,48.90
2019-03-18T13:20:10.969Z,48.90
2019-03-18T13:22:38.447Z,48.90
2019-03-18T13:25:07.093Z,48.90
2019-03-18T13:27:34.564Z,49.00
2019-03-18T13:30:02.039Z,48.90
2019-03-18T13:32:29.803Z,49.60
2019-03-18T13:34:57.275Z,49.00
2019-03-18T13:37:24.768Z,49.00
2019-03-18T13:39:52.248Z,48.90
2019-03-18T13:42:19.754Z,49.10
2019-03-18T13:44:47.231Z,49.00
2019-03-18T13:47:14.720Z,49.10
2019-03-18T13:49:42.213Z,49.00
2019-03-18T13:52:09.991Z,48.90
2019-03-18T13:54:37.466Z,48.90
2019-03-18T13:57:04.948Z,48.90
2019-03-18T13:59:32.479Z,48.90
2019-03-18T14:01:59.948Z,48.80
2019-03-18T14:04:27.417Z,48.90
2019-03-18T14:06:54.887Z,48.90
2019-03-18T14:09:22.376Z,48.90
2019-03-18T14:11:49.845Z,48.90
2019-03-18T14:14:17.308Z,49.00
2019-03-18T14:16:44.786Z,48.90
2019-03-18T14:19:12.405Z,48.80
2019-03-18T14:21:40.010Z,48.90
2019-03-18T14:24:07.483Z,48.90
2019-03-18T14:26:34.958Z,49.00
2019-03-18T14:29:02.437Z,49.00
2019-03-18T14:31:29.900Z,49.10
2019-03-18T14:33:57.369Z,49.00
2019-03-18T14:36:24.855Z,49.00
2019-03-18T14:38:52.318Z,49.10
2019-03-18T14:41:19.783Z,48.90
2019-03-18T14:43:47.264Z,48.90
2019-03-18T14:46:14.731Z,48.80
2019-03-18T14:48:42.214Z,48.90
2019-03-18T14:51:09.686Z,48.80
2019-03-18T14:53:37.437Z,48.70
2019-03-18T14:56:04.915Z,48.60
2019-03-18T14:58:32.395Z,48.50
2019-03-18T15:00:59.879Z,48.30
2019-03-18T15:03:27.423Z,48.30
2019-03-18T15:05:54.975Z,48.60
2019-03-18T15:08:22.558Z,48.60
2019-03-18T15:10:50.072Z,48.50
2019-03-18T15:13:30.028Z,48.50
2019-03-18T15:15:46.764Z,48.50
2019-03-18T15:18:14.318Z,48.50
2019-03-18T15:20:42.071Z,48.50
2019-03-18T15:23:09.539Z,48.70
2019-03-18T15:25:37.026Z,48.70
2019-03-18T15:28:04.494Z,48.60
2019-03-18T15:30:31.974Z,48.60
2019-03-18T15:32:59.727Z,48.80
2019-03-18T15:35:27.218Z,49.40
2019-03-18T15:37:54.702Z,48.80
2019-03-18T15:40:25.525Z,48.90
2019-03-18T15:42:53.001Z,48.90
2019-03-18T15:45:20.736Z,49.50
2019-03-18T15:47:48.217Z,48.90
2019-03-18T15:50:17.316Z,48.90
2019-03-18T15:52:44.795Z,48.90
2019-03-18T15:55:12.254Z,48.90
2019-03-18T15:57:39.767Z,48.80
2019-03-18T16:00:11.646Z,48.70
2019-03-18T16:02:39.117Z,48.70
2019-03-18T16:05:06.958Z,48.70
2019-03-18T16:07:34.421Z,48.80
2019-03-18T16:10:01.963Z,48.80
2019-03-18T16:12:29.431Z,48.90
2019-03-18T16:14:56.910Z,48.80
2019-03-18T16:17:24.386Z,48.70
2019-03-18T16:19:51.863Z,48.80
2019-03-18T16:22:23.677Z,48.70
2019-03-18T16:24:48.546Z,48.70
2019-03-18T16:27:16.022Z,48.70
2019-03-18T16:29:43.494Z,48.70
2019-03-18T16:32:11.857Z,48.60
2019-03-18T16:34:39.424Z,48.70
2019-03-18T16:37:07.246Z,48.70
2019-03-18T16:39:34.856Z,48.70
2019-03-18T16:42:02.377Z,48.80
2019-03-18T16:44:29.858Z,48.90
2019-03-18T16:46:57.692Z,48.90
2019-03-18T16:49:25.198Z,48.90
2019-03-18T16:51:52.675Z,48.90
2019-03-18T16:54:20.166Z,48.90
2019-03-18T16:56:47.631Z,49.10
2019-03-18T16:59:15.106Z,48.90
2019-03-18T17:01:42.598Z,48.90
2019-03-18T17:04:10.065Z,48.90
2019-03-18T17:06:38.088Z,48.90
2019-03-18T17:09:06.053Z,48.70
2019-03-18T17:11:33.887Z,48.70
2019-03-18T17:14:01.371Z,48.70
2019-03-18T17:16:28.846Z,48.70
2019-03-18T17:18:56.313Z,48.60
2019-03-18T17:21:23.818Z,48.70
2019-03-18T17:23:51.390Z,48.80
2019-03-18T17:26:18.866Z,48.90
2019-03-18T17:28:46.329Z,48.90
2019-03-18T17:31:13.806Z,48.90
2019-03-18T17:33:41.279Z,49.50
2019-03-18T17:36:08.747Z,48.90
2019-03-18T17:38:36.223Z,48.90
2019-03-18T17:41:03.696Z,49.00
2019-03-18T17:43:31.170Z,48.90
2019-03-18T17:45:58.755Z,48.80
2019-03-18T17:48:26.223Z,48.80
2019-03-18T17:50:53.698Z,48.70
2019-03-18T17:53:22.296Z,48.70
2019-03-18T17:55:49.746Z,48.80
2019-03-18T17:58:17.214Z,48.90
2019-03-18T18:00:52.277Z,48.90
2019-03-18T18:03:19.746Z,48.90
2019-03-18T18:05:47.230Z,49.00
2019-03-18T18:08:14.728Z,49.00
2019-03-18T18:10:42.190Z,48.90
2019-03-18T18:13:09.672Z,48.90
2019-03-18T18:15:37.134Z,48.90
2019-03-18T18:18:04.618Z,48.80
2019-03-18T18:20:32.099Z,48.80
2019-03-18T18:22:59.575Z,48.80
2019-03-18T18:25:27.053Z,48.80
2019-03-18T18:27:54.535Z,48.80
2019-03-18T18:30:22.001Z,48.90
2019-03-18T18:32:49.467Z,48.90
2019-03-18T18:35:16.942Z,48.90
2019-03-18T18:37:44.408Z,49.00
2019-03-18T18:40:12.854Z,49.10
2019-03-18T18:42:40.359Z,49.00
2019-03-18T18:45:08.799Z,49.10
2019-03-18T18:47:36.281Z,49.00
2019-03-18T18:50:04.518Z,49.00
2019-03-18T18:52:32.025Z,48.90
2019-03-18T18:54:59.490Z,49.10
2019-03-18T18:57:26.979Z,49.30
2019-03-18T18:59:54.446Z,49.10
2019-03-18T19:02:21.911Z,49.00
2019-03-18T19:04:49.385Z,48.90
2019-03-18T19:07:16.862Z,49.00
2019-03-18T19:09:44.330Z,49.20
2019-03-18T19:12:11.854Z,49.00
2019-03-18T19:14:39.395Z,48.90
2019-03-18T19:17:06.907Z,49.40
2019-03-18T19:19:34.374Z,49.40
2019-03-18T19:22:01.842Z,49.20
2019-03-18T19:24:29.306Z,49.20
2019-03-18T19:26:56.790Z,49.10
2019-03-18T19:29:24.277Z,48.90
2019-03-18T19:31:51.752Z,48.90
2019-03-18T19:34:19.234Z,48.80
2019-03-18T19:36:46.714Z,48.70
2019-03-18T19:39:14.194Z,48.60
2019-03-18T19:41:41.661Z,48.60
2019-03-18T19:44:09.141Z,48.60
2019-03-18T19:46:36.612Z,48.60
2019-03-18T19:49:04.092Z,48.50
2019-03-18T19:51:31.563Z,48.80
2019-03-18T19:53:59.044Z,48.90
2019-03-18T19:56:26.514Z,48.90
2019-03-18T19:58:53.994Z,48.80
2019-03-18T20:01:21.449Z,48.80
2019-03-18T20:03:48.923Z,48.80
2019-03-18T20:06:16.416Z,48.80
2019-03-18T20:08:43.946Z,48.60
2019-03-18T20:11:11.490Z,48.50
2019-03-18T20:13:39.035Z,48.50
2019-03-18T20:16:06.505Z,48.40
2019-03-18T20:18:33.969Z,48.40
2019-03-18T20:21:01.495Z,48.40
2019-03-18T20:23:29.000Z,48.40
2019-03-18T20:25:56.504Z,48.50
2019-03-18T20:28:23.961Z,49.40
2019-03-18T20:30:51.435Z,49.00
2019-03-18T20:33:18.899Z,49.20
2019-03-18T20:35:46.432Z,49.20
2019-03-18T20:38:13.929Z,49.20
2019-03-18T20:40:41.420Z,49.20
2019-03-18T20:43:08.944Z,49.20
2019-03-18T20:45:36.464Z,49.10
2019-03-18T20:48:04.025Z,48.90
2019-03-18T20:50:31.473Z,49.00
2019-03-18T20:52:58.989Z,48.90
2019-03-18T20:55:26.495Z,48.80
2019-03-18T20:57:53.941Z,48.90
2019-03-18T21:00:21.682Z,48.80
2019-03-18T21:02:49.155Z,48.80
2019-03-18T21:05:16.685Z,48.80
2019-03-18T21:07:44.313Z,48.80
2019-03-18T21:10:16.345Z,48.80
2019-03-18T21:12:43.822Z,48.90
2019-03-18T21:15:14.621Z,49.00
2019-03-18T21:17:42.087Z,49.00
2019-03-18T21:20:25.774Z,48.80
2019-03-18T21:22:53.247Z,48.80
2019-03-18T21:25:20.712Z,48.80
2019-03-18T21:27:48.188Z,48.80
2019-03-18T21:30:18.990Z,48.80
2019-03-18T21:32:46.618Z,48.80
2019-03-18T21:35:14.119Z,48.90
2019-03-18T21:37:41.606Z,48.90
2019-03-18T21:40:18.690Z,48.80
2019-03-18T21:42:46.163Z,48.80
2019-03-18T21:45:17.940Z,48.80
2019-03-18T21:47:45.506Z,48.70
2019-03-18T21:50:15.966Z,48.80
2019-03-18T21:52:43.425Z,48.70
2019-03-18T21:55:11.360Z,48.60
2019-03-18T21:57:38.844Z,48.50
2019-03-18T22:00:08.181Z,48.50
2019-03-18T22:02:35.645Z,48.30
2019-03-18T22:05:03.797Z,48.30
2019-03-18T22:07:31.275Z,48.30
2019-03-18T22:09:58.738Z,48.20
2019-03-18T22:12:26.234Z,48.20
2019-03-18T22:14:53.702Z,48.10
2019-03-18T22:17:21.180Z,48.10
2019-03-18T22:19:48.659Z,48.10
2019-03-18T22:22:16.138Z,48.10
2019-03-18T22:24:45.616Z,48.30
2019-03-18T22:27:12.831Z,48.30
2019-03-18T22:29:40.304Z,48.30
2019-03-18T22:32:07.774Z,48.20
2019-03-18T22:34:35.238Z,48.20
2019-03-18T22:37:02.731Z,48.20
2019-03-18T22:39:30.201Z,48.10
2019-03-18T22:41:57.673Z,48.20
2019-03-18T22:44:25.168Z,48.20
2019-03-18T22:46:52.626Z,48.20
2019-03-18T22:49:20.112Z,48.20
2019-03-18T22:51:47.582Z,48.20
2019-03-18T22:54:15.049Z,48.10
2019-03-18T22:56:42.546Z,48.10
2019-03-18T22:59:10.027Z,48.10
2019-03-18T23:01:37.495Z,48.20
2019-03-18T23:04:04.981Z,48.20
2019-03-18T23:06:32.446Z,48.30
2019-03-18T23:08:59.923Z,48.30
2019-03-18T23:11:27.382Z,48.30
2019-03-18T23:13:54.862Z,48.30
2019-03-18T23:16:22.332Z,48.20
2019-03-18T23:18:49.809Z,48.10
2019-03-18T23:21:17.280Z,48.00
2019-03-18T23:23:44.762Z,48.10
2019-03-18T23:26:12.226Z,48.00
2019-03-18T23:28:39.699Z,48.10
2019-03-18T23:31:07.216Z,48.00
2019-03-18T23:33:34.698Z,48.00
2019-03-18T23:36:02.167Z,48.00
2019-03-18T23:38:29.651Z,48.00
2019-03-18T23:40:57.122Z,48.20
2019-03-18T23:43:24.586Z,49.10
2019-03-18T23:45:52.049Z,48.40
2019-03-18T23:48:19.518Z,48.20
2019-03-18T23:50:46.985Z,48.10
2019-03-18T23:53:14.450Z,48.10
2019-03-18T23:55:41.928Z,48.00
2019-03-18T23:58:09.432Z,48.00
